sensor_id;sensor_type;location;lat;lon;timestamp;temperature;humidity
48162;DHT22;33950;48.154;16.316;2022-09-29T00:01:24;13.50;99.80
48162;DHT22;33950;48.154;16.316;2022-09-29T00:04:10;13.60;99.90
48162;DHT22;33950;48.154;16.316;2022-09-29T00:06:56;13.60;99.80
48162;DHT22;33950;48.154;16.316;2022-09-29T00:09:42;13.60;99.70
48162;DHT22;33950;48.154;16.316;2022-09-29T00:12:30;13.60;99.90
48162;DHT22;33950;48.154;16.316;2022-09-29T00:15:16;13.60;99.90
48162;DHT22;33950;48.154;16.316;2022-09-29T00:18:02;13.70;99.90
48162;DHT22;33950;48.154;16.316;2022-09-29T00:20:56;13.60;99.70
48162;DHT22;33950;48.154;16.316;2022-09-29T00:23:42;13.50;99.90
48162;DHT22;33950;48.154;16.316;2022-09-29T00:26:28;13.50;99.80
48162;DHT22;33950;48.154;16.316;2022-09-29T00:29:15;13.40;99.80
48162;DHT22;33950;48.154;16.316;2022-09-29T00:32:01;13.30;99.90
48162;DHT22;33950;48.154;16.316;2022-09-29T00:34:48;13.30;99.90
48162;DHT22;33950;48.154;16.316;2022-09-29T00:37:37;13.30;99.90
48162;DHT22;33950;48.154;16.316;2022-09-29T00:40:24;13.30;99.90
48162;DHT22;33950;48.154;16.316;2022-09-29T00:43:11;13.20;99.90
48162;DHT22;33950;48.154;16.316;2022-09-29T00:46:05;13.00;99.90
48162;DHT22;33950;48.154;16.316;2022-09-29T00:48:53;12.90;99.90
48162;DHT22;33950;48.154;16.316;2022-09-29T00:51:43;12.80;99.90
48162;DHT22;33950;48.154;16.316;2022-09-29T00:54:34;12.80;99.90
48162;DHT22;33950;48.154;16.316;2022-09-29T00:57:23;12.80;99.90
48162;DHT22;33950;48.154;16.316;2022-09-29T01:00:12;12.80;99.90
48162;DHT22;33950;48.154;16.316;2022-09-29T01:03:04;12.70;99.90
48162;DHT22;33950;48.154;16.316;2022-09-29T01:05:56;12.80;99.90
48162;DHT22;33950;48.154;16.316;2022-09-29T01:08:46;12.90;99.90
48162;DHT22;33950;48.154;16.316;2022-09-29T01:11:34;12.90;99.90
48162;DHT22;33950;48.154;16.316;2022-09-29T01:14:20;13.10;99.90
48162;DHT22;33950;48.154;16.316;2022-09-29T01:17:07;13.10;99.90
48162;DHT22;33950;48.154;16.316;2022-09-29T01:20:04;13.20;99.90
48162;DHT22;33950;48.154;16.316;2022-09-29T01:30:02;12.90;99.90
48162;DHT22;33950;48.154;16.316;2022-09-29T01:33:23;12.90;99.90
48162;DHT22;33950;48.154;16.316;2022-09-29T01:36:18;12.70;99.90
48162;DHT22;33950;48.154;16.316;2022-09-29T01:39:16;12.60;99.90
48162;DHT22;33950;48.154;16.316;2022-09-29T01:42:07;12.50;99.90
48162;DHT22;33950;48.154;16.316;2022-09-29T01:44:58;12.50;99.90
48162;DHT22;33950;48.154;16.316;2022-09-29T01:47:47;12.40;99.90
48162;DHT22;33950;48.154;16.316;2022-09-29T01:50:39;12.40;99.90
48162;DHT22;33950;48.154;16.316;2022-09-29T01:53:33;12.30;99.90
48162;DHT22;33950;48.154;16.316;2022-09-29T01:56:26;12.30;99.90
48162;DHT22;33950;48.154;16.316;2022-09-29T01:59:17;12.20;99.90
48162;DHT22;33950;48.154;16.316;2022-09-29T02:02:07;12.10;99.90
48162;DHT22;33950;48.154;16.316;2022-09-29T02:04:57;12.00;99.90
48162;DHT22;33950;48.154;16.316;2022-09-29T02:07:47;11.90;99.90
48162;DHT22;33950;48.154;16.316;2022-09-29T02:10:39;11.90;99.90
48162;DHT22;33950;48.154;16.316;2022-09-29T02:13:26;12.00;99.90
48162;DHT22;33950;48.154;16.316;2022-09-29T02:16:16;12.00;99.90
48162;DHT22;33950;48.154;16.316;2022-09-29T02:19:07;12.00;99.90
48162;DHT22;33950;48.154;16.316;2022-09-29T02:21:55;12.10;99.90
48162;DHT22;33950;48.154;16.316;2022-09-29T02:24:43;12.00;99.80
48162;DHT22;33950;48.154;16.316;2022-09-29T02:27:30;12.00;99.80
48162;DHT22;33950;48.154;16.316;2022-09-29T02:30:18;12.10;99.60
48162;DHT22;33950;48.154;16.316;2022-09-29T02:33:05;12.00;99.60
48162;DHT22;33950;48.154;16.316;2022-09-29T02:35:59;12.00;99.60
48162;DHT22;33950;48.154;16.316;2022-09-29T02:38:52;12.00;99.60
48162;DHT22;33950;48.154;16.316;2022-09-29T02:41:49;12.00;99.30
48162;DHT22;33950;48.154;16.316;2022-09-29T02:44:53;11.90;99.40
48162;DHT22;33950;48.154;16.316;2022-09-29T02:47:52;11.90;99.60
48162;DHT22;33950;48.154;16.316;2022-09-29T02:50:58;11.90;99.60
48162;DHT22;33950;48.154;16.316;2022-09-29T02:53:58;11.70;99.60
48162;DHT22;33950;48.154;16.316;2022-09-29T02:56:53;11.60;99.60
48162;DHT22;33950;48.154;16.316;2022-09-29T02:59:49;11.50;99.80
48162;DHT22;33950;48.154;16.316;2022-09-29T03:02:37;11.50;99.80
48162;DHT22;33950;48.154;16.316;2022-09-29T03:05:23;11.50;99.90
48162;DHT22;33950;48.154;16.316;2022-09-29T03:08:10;11.50;99.90
48162;DHT22;33950;48.154;16.316;2022-09-29T03:10:56;11.60;99.90
48162;DHT22;33950;48.154;16.316;2022-09-29T03:13:44;11.50;99.90
48162;DHT22;33950;48.154;16.316;2022-09-29T03:16:30;11.50;99.90
48162;DHT22;33950;48.154;16.316;2022-09-29T03:19:16;11.50;99.90
48162;DHT22;33950;48.154;16.316;2022-09-29T03:22:02;11.40;99.90
48162;DHT22;33950;48.154;16.316;2022-09-29T03:24:48;11.40;99.90
48162;DHT22;33950;48.154;16.316;2022-09-29T03:27:34;11.40;99.90
48162;DHT22;33950;48.154;16.316;2022-09-29T03:30:24;11.40;99.90
48162;DHT22;33950;48.154;16.316;2022-09-29T03:33:10;11.30;99.90
48162;DHT22;33950;48.154;16.316;2022-09-29T03:35:56;11.20;99.90
48162;DHT22;33950;48.154;16.316;2022-09-29T03:38:43;11.20;99.90
48162;DHT22;33950;48.154;16.316;2022-09-29T03:41:30;11.30;99.90
48162;DHT22;33950;48.154;16.316;2022-09-29T03:44:16;11.30;99.90
48162;DHT22;33950;48.154;16.316;2022-09-29T03:47:04;11.20;99.90
48162;DHT22;33950;48.154;16.316;2022-09-29T03:49:50;11.20;99.90
48162;DHT22;33950;48.154;16.316;2022-09-29T03:52:36;11.20;99.90
48162;DHT22;33950;48.154;16.316;2022-09-29T03:55:22;11.20;99.90
48162;DHT22;33950;48.154;16.316;2022-09-29T03:58:08;11.20;99.90
48162;DHT22;33950;48.154;16.316;2022-09-29T04:00:54;11.30;99.90
48162;DHT22;33950;48.154;16.316;2022-09-29T04:03:42;11.30;99.90
48162;DHT22;33950;48.154;16.316;2022-09-29T04:06:28;11.30;99.90
48162;DHT22;33950;48.154;16.316;2022-09-29T04:09:14;11.30;99.80
48162;DHT22;33950;48.154;16.316;2022-09-29T04:12:00;11.30;99.70
48162;DHT22;33950;48.154;16.316;2022-09-29T04:14:47;11.20;99.70
48162;DHT22;33950;48.154;16.316;2022-09-29T04:17:33;11.30;99.50
48162;DHT22;33950;48.154;16.316;2022-09-29T04:20:20;11.30;99.10
48162;DHT22;33950;48.154;16.316;2022-09-29T04:23:06;11.40;99.30
48162;DHT22;33950;48.154;16.316;2022-09-29T04:25:52;11.40;99.10
48162;DHT22;33950;48.154;16.316;2022-09-29T04:28:39;11.30;99.20
48162;DHT22;33950;48.154;16.316;2022-09-29T04:31:25;11.30;99.10
48162;DHT22;33950;48.154;16.316;2022-09-29T04:34:11;11.30;99.00
48162;DHT22;33950;48.154;16.316;2022-09-29T04:36:58;11.20;99.00
48162;DHT22;33950;48.154;16.316;2022-09-29T04:39:45;11.20;99.20
48162;DHT22;33950;48.154;16.316;2022-09-29T04:42:31;11.20;99.30
48162;DHT22;33950;48.154;16.316;2022-09-29T04:45:17;11.20;99.40
48162;DHT22;33950;48.154;16.316;2022-09-29T04:48:03;11.20;99.50
48162;DHT22;33950;48.154;16.316;2022-09-29T04:50:49;11.40;99.50
48162;DHT22;33950;48.154;16.316;2022-09-29T04:53:38;11.60;99.30
48162;DHT22;33950;48.154;16.316;2022-09-29T04:56:24;11.80;99.10
48162;DHT22;33950;48.154;16.316;2022-09-29T04:59:16;11.70;98.90
48162;DHT22;33950;48.154;16.316;2022-09-29T05:02:04;11.80;98.90
48162;DHT22;33950;48.154;16.316;2022-09-29T05:04:50;11.80;98.70
48162;DHT22;33950;48.154;16.316;2022-09-29T05:07:38;11.80;98.60
48162;DHT22;33950;48.154;16.316;2022-09-29T05:10:26;11.90;98.50
48162;DHT22;33950;48.154;16.316;2022-09-29T05:13:12;11.90;98.30
48162;DHT22;33950;48.154;16.316;2022-09-29T05:15:58;11.90;98.40
48162;DHT22;33950;48.154;16.316;2022-09-29T05:18:44;11.90;98.40
48162;DHT22;33950;48.154;16.316;2022-09-29T05:21:31;11.80;98.40
48162;DHT22;33950;48.154;16.316;2022-09-29T05:24:17;11.80;98.40
48162;DHT22;33950;48.154;16.316;2022-09-29T05:27:04;11.70;98.40
48162;DHT22;33950;48.154;16.316;2022-09-29T05:29:50;11.70;98.40
48162;DHT22;33950;48.154;16.316;2022-09-29T05:32:36;11.70;98.50
48162;DHT22;33950;48.154;16.316;2022-09-29T05:35:22;11.80;98.40
48162;DHT22;33950;48.154;16.316;2022-09-29T05:38:08;11.70;98.20
48162;DHT22;33950;48.154;16.316;2022-09-29T05:40:54;11.70;98.30
48162;DHT22;33950;48.154;16.316;2022-09-29T05:43:42;11.80;98.40
48162;DHT22;33950;48.154;16.316;2022-09-29T05:46:28;11.70;98.40
48162;DHT22;33950;48.154;16.316;2022-09-29T05:49:14;11.70;98.50
48162;DHT22;33950;48.154;16.316;2022-09-29T05:52:03;11.60;98.60
48162;DHT22;33950;48.154;16.316;2022-09-29T05:54:49;11.50;98.60
48162;DHT22;33950;48.154;16.316;2022-09-29T05:57:36;11.40;98.90
48162;DHT22;33950;48.154;16.316;2022-09-29T06:00:23;11.40;98.80
48162;DHT22;33950;48.154;16.316;2022-09-29T06:03:10;11.40;98.80
48162;DHT22;33950;48.154;16.316;2022-09-29T06:05:56;11.40;98.80
48162;DHT22;33950;48.154;16.316;2022-09-29T06:08:43;11.50;99.10
48162;DHT22;33950;48.154;16.316;2022-09-29T06:11:30;11.40;99.00
48162;DHT22;33950;48.154;16.316;2022-09-29T06:14:16;11.40;99.20
48162;DHT22;33950;48.154;16.316;2022-09-29T06:17:04;11.30;99.30
48162;DHT22;33950;48.154;16.316;2022-09-29T06:19:50;11.30;99.70
48162;DHT22;33950;48.154;16.316;2022-09-29T06:22:37;11.50;99.60
48162;DHT22;33950;48.154;16.316;2022-09-29T06:25:24;11.50;99.50
48162;DHT22;33950;48.154;16.316;2022-09-29T06:28:10;11.50;99.40
48162;DHT22;33950;48.154;16.316;2022-09-29T06:30:57;11.30;99.80
48162;DHT22;33950;48.154;16.316;2022-09-29T06:33:45;11.20;99.90
48162;DHT22;33950;48.154;16.316;2022-09-29T06:36:34;11.30;99.90
48162;DHT22;33950;48.154;16.316;2022-09-29T06:39:40;11.40;99.90
48162;DHT22;33950;48.154;16.316;2022-09-29T06:42:26;11.50;99.90
48162;DHT22;33950;48.154;16.316;2022-09-29T06:45:12;11.70;99.80
48162;DHT22;33950;48.154;16.316;2022-09-29T06:47:58;11.60;99.50
48162;DHT22;33950;48.154;16.316;2022-09-29T06:50:46;11.60;99.70
48162;DHT22;33950;48.154;16.316;2022-09-29T06:53:33;11.60;99.60
48162;DHT22;33950;48.154;16.316;2022-09-29T06:56:19;11.70;99.50
48162;DHT22;33950;48.154;16.316;2022-09-29T06:59:06;11.90;99.60
48162;DHT22;33950;48.154;16.316;2022-09-29T07:01:52;12.10;99.50
48162;DHT22;33950;48.154;16.316;2022-09-29T07:04:38;12.40;99.40
48162;DHT22;33950;48.154;16.316;2022-09-29T07:07:25;12.50;98.80
48162;DHT22;33950;48.154;16.316;2022-09-29T07:10:12;12.60;98.80
48162;DHT22;33950;48.154;16.316;2022-09-29T07:12:58;12.50;98.30
48162;DHT22;33950;48.154;16.316;2022-09-29T07:15:44;12.50;98.20
48162;DHT22;33950;48.154;16.316;2022-09-29T07:18:33;12.60;98.10
48162;DHT22;33950;48.154;16.316;2022-09-29T07:21:20;12.50;97.90
48162;DHT22;33950;48.154;16.316;2022-09-29T07:24:08;12.40;97.80
48162;DHT22;33950;48.154;16.316;2022-09-29T07:26:54;12.40;97.40
48162;DHT22;33950;48.154;16.316;2022-09-29T07:29:40;12.40;97.80
48162;DHT22;33950;48.154;16.316;2022-09-29T07:32:26;12.40;98.00
48162;DHT22;33950;48.154;16.316;2022-09-29T07:35:12;12.30;98.00
48162;DHT22;33950;48.154;16.316;2022-09-29T07:37:59;12.30;97.90
48162;DHT22;33950;48.154;16.316;2022-09-29T07:40:46;12.50;98.00
48162;DHT22;33950;48.154;16.316;2022-09-29T07:43:33;12.70;98.30
48162;DHT22;33950;48.154;16.316;2022-09-29T07:46:19;13.00;98.00
48162;DHT22;33950;48.154;16.316;2022-09-29T07:49:05;13.00;97.40
48162;DHT22;33950;48.154;16.316;2022-09-29T07:51:51;12.90;97.50
48162;DHT22;33950;48.154;16.316;2022-09-29T07:54:37;12.90;97.70
48162;DHT22;33950;48.154;16.316;2022-09-29T07:57:25;12.90;97.50
48162;DHT22;33950;48.154;16.316;2022-09-29T08:00:12;12.90;96.90
48162;DHT22;33950;48.154;16.316;2022-09-29T08:02:59;12.90;97.00
48162;DHT22;33950;48.154;16.316;2022-09-29T08:05:47;12.80;97.00
48162;DHT22;33950;48.154;16.316;2022-09-29T08:08:34;12.70;96.80
48162;DHT22;33950;48.154;16.316;2022-09-29T08:11:20;12.60;96.90
48162;DHT22;33950;48.154;16.316;2022-09-29T08:14:09;12.70;97.00
48162;DHT22;33950;48.154;16.316;2022-09-29T08:16:55;12.70;96.90
48162;DHT22;33950;48.154;16.316;2022-09-29T08:19:41;12.80;97.10
48162;DHT22;33950;48.154;16.316;2022-09-29T08:22:27;13.00;96.90
48162;DHT22;33950;48.154;16.316;2022-09-29T08:25:14;13.10;96.90
48162;DHT22;33950;48.154;16.316;2022-09-29T08:28:01;13.30;96.70
48162;DHT22;33950;48.154;16.316;2022-09-29T08:30:49;13.40;96.30
48162;DHT22;33950;48.154;16.316;2022-09-29T08:33:35;13.50;96.30
48162;DHT22;33950;48.154;16.316;2022-09-29T08:36:22;13.40;96.40
48162;DHT22;33950;48.154;16.316;2022-09-29T08:39:09;13.40;96.20
48162;DHT22;33950;48.154;16.316;2022-09-29T08:41:59;13.50;96.10
48162;DHT22;33950;48.154;16.316;2022-09-29T08:44:51;13.70;95.80
48162;DHT22;33950;48.154;16.316;2022-09-29T08:47:44;13.80;95.30
48162;DHT22;33950;48.154;16.316;2022-09-29T08:50:36;13.80;95.30
48162;DHT22;33950;48.154;16.316;2022-09-29T08:53:31;13.90;95.50
48162;DHT22;33950;48.154;16.316;2022-09-29T08:56:19;14.00;95.30
48162;DHT22;33950;48.154;16.316;2022-09-29T08:59:08;14.20;95.10
48162;DHT22;33950;48.154;16.316;2022-09-29T09:02:03;14.20;95.00
48162;DHT22;33950;48.154;16.316;2022-09-29T09:05:11;14.30;94.90
48162;DHT22;33950;48.154;16.316;2022-09-29T09:08:04;14.40;94.40
48162;DHT22;33950;48.154;16.316;2022-09-29T09:10:59;14.50;94.40
48162;DHT22;33950;48.154;16.316;2022-09-29T09:13:59;14.60;94.20
48162;DHT22;33950;48.154;16.316;2022-09-29T09:16:59;14.70;94.30
48162;DHT22;33950;48.154;16.316;2022-09-29T09:20:07;14.80;93.90
48162;DHT22;33950;48.154;16.316;2022-09-29T09:22:57;14.90;93.90
48162;DHT22;33950;48.154;16.316;2022-09-29T09:25:48;14.90;93.40
48162;DHT22;33950;48.154;16.316;2022-09-29T09:28:38;15.00;93.90
48162;DHT22;33950;48.154;16.316;2022-09-29T09:31:28;15.20;94.00
48162;DHT22;33950;48.154;16.316;2022-09-29T09:34:21;15.20;93.60
48162;DHT22;33950;48.154;16.316;2022-09-29T09:37:15;15.20;93.50
48162;DHT22;33950;48.154;16.316;2022-09-29T09:40:05;15.20;93.50
48162;DHT22;33950;48.154;16.316;2022-09-29T09:43:02;15.30;93.60
48162;DHT22;33950;48.154;16.316;2022-09-29T09:45:53;15.40;93.40
48162;DHT22;33950;48.154;16.316;2022-09-29T09:48:42;15.60;93.20
48162;DHT22;33950;48.154;16.316;2022-09-29T09:51:43;15.70;93.20
48162;DHT22;33950;48.154;16.316;2022-09-29T09:54:34;15.70;92.50
48162;DHT22;33950;48.154;16.316;2022-09-29T09:57:32;15.90;92.50
48162;DHT22;33950;48.154;16.316;2022-09-29T10:00:24;15.90;92.10
48162;DHT22;33950;48.154;16.316;2022-09-29T10:03:11;15.80;92.10
48162;DHT22;33950;48.154;16.316;2022-09-29T10:05:59;15.80;92.20
48162;DHT22;33950;48.154;16.316;2022-09-29T10:08:45;15.80;91.90
48162;DHT22;33950;48.154;16.316;2022-09-29T10:11:33;15.80;92.10
48162;DHT22;33950;48.154;16.316;2022-09-29T10:14:22;15.90;92.00
48162;DHT22;33950;48.154;16.316;2022-09-29T10:17:12;15.90;92.20
48162;DHT22;33950;48.154;16.316;2022-09-29T10:20:01;16.00;92.10
48162;DHT22;33950;48.154;16.316;2022-09-29T10:22:49;16.10;91.70
48162;DHT22;33950;48.154;16.316;2022-09-29T10:25:36;16.10;91.70
48162;DHT22;33950;48.154;16.316;2022-09-29T10:28:25;15.90;91.60
48162;DHT22;33950;48.154;16.316;2022-09-29T10:31:22;15.80;91.60
48162;DHT22;33950;48.154;16.316;2022-09-29T10:34:15;15.80;91.40
48162;DHT22;33950;48.154;16.316;2022-09-29T10:37:03;15.80;91.70
48162;DHT22;33950;48.154;16.316;2022-09-29T10:40:03;16.20;91.40
48162;DHT22;33950;48.154;16.316;2022-09-29T10:42:50;16.70;90.60
48162;DHT22;33950;48.154;16.316;2022-09-29T10:45:47;16.80;90.60
48162;DHT22;33950;48.154;16.316;2022-09-29T10:48:33;17.10;90.80
48162;DHT22;33950;48.154;16.316;2022-09-29T10:51:23;17.80;90.30
48162;DHT22;33950;48.154;16.316;2022-09-29T10:54:13;18.00;90.00
48162;DHT22;33950;48.154;16.316;2022-09-29T10:57:10;18.50;87.50
48162;DHT22;33950;48.154;16.316;2022-09-29T10:59:57;18.90;88.10
48162;DHT22;33950;48.154;16.316;2022-09-29T11:02:46;19.40;86.30
48162;DHT22;33950;48.154;16.316;2022-09-29T11:05:32;19.80;85.10
48162;DHT22;33950;48.154;16.316;2022-09-29T11:08:19;19.90;83.00
48162;DHT22;33950;48.154;16.316;2022-09-29T11:11:20;19.90;82.90
48162;DHT22;33950;48.154;16.316;2022-09-29T11:14:23;19.80;83.80
48162;DHT22;33950;48.154;16.316;2022-09-29T11:17:24;20.20;83.10
48162;DHT22;33950;48.154;16.316;2022-09-29T11:20:14;20.50;82.40
48162;DHT22;33950;48.154;16.316;2022-09-29T11:23:23;20.80;82.20
48162;DHT22;33950;48.154;16.316;2022-09-29T11:26:18;21.30;82.10
48162;DHT22;33950;48.154;16.316;2022-09-29T11:29:22;21.20;81.30
48162;DHT22;33950;48.154;16.316;2022-09-29T11:32:23;21.10;81.90
48162;DHT22;33950;48.154;16.316;2022-09-29T11:35:33;21.30;81.60
48162;DHT22;33950;48.154;16.316;2022-09-29T11:38:52;21.70;82.30
48162;DHT22;33950;48.154;16.316;2022-09-29T11:41:49;21.70;79.60
48162;DHT22;33950;48.154;16.316;2022-09-29T11:44:57;21.20;80.50
48162;DHT22;33950;48.154;16.316;2022-09-29T11:51:21;21.00;81.60
48162;DHT22;33950;48.154;16.316;2022-09-29T11:54:26;21.10;81.20
48162;DHT22;33950;48.154;16.316;2022-09-29T11:57:31;21.10;80.90
48162;DHT22;33950;48.154;16.316;2022-09-29T12:00:20;21.00;81.30
48162;DHT22;33950;48.154;16.316;2022-09-29T12:03:20;20.90;81.20
48162;DHT22;33950;48.154;16.316;2022-09-29T12:06:33;20.60;79.40
48162;DHT22;33950;48.154;16.316;2022-09-29T12:09:35;20.10;81.40
48162;DHT22;33950;48.154;16.316;2022-09-29T12:12:31;19.60;81.40
48162;DHT22;33950;48.154;16.316;2022-09-29T12:15:27;19.20;82.30
48162;DHT22;33950;48.154;16.316;2022-09-29T12:18:20;19.10;82.80
48162;DHT22;33950;48.154;16.316;2022-09-29T12:21:07;18.80;82.60
48162;DHT22;33950;48.154;16.316;2022-09-29T12:23:57;18.80;83.30
48162;DHT22;33950;48.154;16.316;2022-09-29T12:26:48;18.90;83.30
48162;DHT22;33950;48.154;16.316;2022-09-29T12:29:38;19.00;83.00
48162;DHT22;33950;48.154;16.316;2022-09-29T12:32:29;19.50;83.70
48162;DHT22;33950;48.154;16.316;2022-09-29T12:35:19;19.80;81.70
48162;DHT22;33950;48.154;16.316;2022-09-29T12:38:13;20.00;81.70
48162;DHT22;33950;48.154;16.316;2022-09-29T12:41:09;20.00;80.70
48162;DHT22;33950;48.154;16.316;2022-09-29T12:44:01;20.30;80.60
48162;DHT22;33950;48.154;16.316;2022-09-29T12:46:53;20.60;79.90
48162;DHT22;33950;48.154;16.316;2022-09-29T12:49:50;21.00;79.80
48162;DHT22;33950;48.154;16.316;2022-09-29T12:52:44;21.40;79.40
48162;DHT22;33950;48.154;16.316;2022-09-29T12:55:40;21.80;78.40
48162;DHT22;33950;48.154;16.316;2022-09-29T12:58:35;22.00;77.60
48162;DHT22;33950;48.154;16.316;2022-09-29T13:01:27;22.00;77.30
48162;DHT22;33950;48.154;16.316;2022-09-29T13:04:59;21.70;77.00
48162;DHT22;33950;48.154;16.316;2022-09-29T13:07:56;21.70;76.10
48162;DHT22;33950;48.154;16.316;2022-09-29T13:10:58;21.70;76.40
48162;DHT22;33950;48.154;16.316;2022-09-29T13:14:06;21.60;77.50
48162;DHT22;33950;48.154;16.316;2022-09-29T13:17:14;22.10;77.60
48162;DHT22;33950;48.154;16.316;2022-09-29T13:20:29;22.30;76.30
48162;DHT22;33950;48.154;16.316;2022-09-29T13:26:57;22.00;76.60
48162;DHT22;33950;48.154;16.316;2022-09-29T13:29:50;21.90;76.10
48162;DHT22;33950;48.154;16.316;2022-09-29T13:32:39;21.60;76.70
48162;DHT22;33950;48.154;16.316;2022-09-29T13:35:28;21.30;76.00
48162;DHT22;33950;48.154;16.316;2022-09-29T13:38:24;21.10;76.70
48162;DHT22;33950;48.154;16.316;2022-09-29T13:41:14;21.10;76.80
48162;DHT22;33950;48.154;16.316;2022-09-29T13:47:31;21.20;77.30
48162;DHT22;33950;48.154;16.316;2022-09-29T13:50:42;21.30;76.30
48162;DHT22;33950;48.154;16.316;2022-09-29T13:53:35;21.10;77.40
48162;DHT22;33950;48.154;16.316;2022-09-29T13:56:22;20.90;76.80
48162;DHT22;33950;48.154;16.316;2022-09-29T13:59:13;20.70;77.90
48162;DHT22;33950;48.154;16.316;2022-09-29T14:02:01;20.70;78.30
48162;DHT22;33950;48.154;16.316;2022-09-29T14:04:53;20.80;78.40
48162;DHT22;33950;48.154;16.316;2022-09-29T14:07:42;20.70;77.90
48162;DHT22;33950;48.154;16.316;2022-09-29T14:10:37;20.80;77.60
48162;DHT22;33950;48.154;16.316;2022-09-29T14:13:28;20.60;78.00
48162;DHT22;33950;48.154;16.316;2022-09-29T14:16:23;20.70;78.90
48162;DHT22;33950;48.154;16.316;2022-09-29T14:19:30;20.70;78.70
48162;DHT22;33950;48.154;16.316;2022-09-29T14:22:58;20.60;77.60
48162;DHT22;33950;48.154;16.316;2022-09-29T14:25:50;20.50;78.20
48162;DHT22;33950;48.154;16.316;2022-09-29T14:28:40;20.60;78.30
48162;DHT22;33950;48.154;16.316;2022-09-29T14:31:29;20.70;79.20
48162;DHT22;33950;48.154;16.316;2022-09-29T14:34:17;20.80;77.50
48162;DHT22;33950;48.154;16.316;2022-09-29T14:37:04;20.70;78.10
48162;DHT22;33950;48.154;16.316;2022-09-29T14:39:54;20.60;78.40
48162;DHT22;33950;48.154;16.316;2022-09-29T14:43:17;20.50;78.30
48162;DHT22;33950;48.154;16.316;2022-09-29T14:46:19;20.30;78.50
48162;DHT22;33950;48.154;16.316;2022-09-29T14:49:37;20.30;77.90
48162;DHT22;33950;48.154;16.316;2022-09-29T14:52:54;20.30;77.80
48162;DHT22;33950;48.154;16.316;2022-09-29T14:55:49;20.00;78.70
48162;DHT22;33950;48.154;16.316;2022-09-29T14:58:49;19.70;78.70
48162;DHT22;33950;48.154;16.316;2022-09-29T15:02:01;19.50;79.90
48162;DHT22;33950;48.154;16.316;2022-09-29T15:04:52;19.20;79.80
48162;DHT22;33950;48.154;16.316;2022-09-29T15:07:39;19.10;80.30
48162;DHT22;33950;48.154;16.316;2022-09-29T15:10:27;19.10;80.60
48162;DHT22;33950;48.154;16.316;2022-09-29T15:13:16;19.00;81.20
48162;DHT22;33950;48.154;16.316;2022-09-29T15:16:15;18.90;81.70
48162;DHT22;33950;48.154;16.316;2022-09-29T15:19:15;19.10;81.90
48162;DHT22;33950;48.154;16.316;2022-09-29T15:22:18;19.00;81.60
48162;DHT22;33950;48.154;16.316;2022-09-29T15:25:18;19.00;81.80
48162;DHT22;33950;48.154;16.316;2022-09-29T15:28:13;18.90;82.20
48162;DHT22;33950;48.154;16.316;2022-09-29T15:31:03;18.80;82.00
48162;DHT22;33950;48.154;16.316;2022-09-29T15:33:50;18.60;82.30
48162;DHT22;33950;48.154;16.316;2022-09-29T15:36:37;18.50;81.80
48162;DHT22;33950;48.154;16.316;2022-09-29T15:39:41;18.40;82.20
48162;DHT22;33950;48.154;16.316;2022-09-29T15:42:27;18.30;83.10
48162;DHT22;33950;48.154;16.316;2022-09-29T15:45:17;18.20;83.10
48162;DHT22;33950;48.154;16.316;2022-09-29T15:48:06;18.20;83.20
48162;DHT22;33950;48.154;16.316;2022-09-29T15:50:53;18.10;83.30
48162;DHT22;33950;48.154;16.316;2022-09-29T15:53:40;18.10;83.90
48162;DHT22;33950;48.154;16.316;2022-09-29T15:56:27;18.00;83.50
48162;DHT22;33950;48.154;16.316;2022-09-29T15:59:17;18.00;83.60
48162;DHT22;33950;48.154;16.316;2022-09-29T16:02:04;18.00;83.50
48162;DHT22;33950;48.154;16.316;2022-09-29T16:04:56;17.90;84.00
48162;DHT22;33950;48.154;16.316;2022-09-29T16:07:51;17.90;83.90
48162;DHT22;33950;48.154;16.316;2022-09-29T16:10:52;17.90;83.90
48162;DHT22;33950;48.154;16.316;2022-09-29T16:13:41;17.90;84.20
48162;DHT22;33950;48.154;16.316;2022-09-29T16:16:36;17.90;84.20
48162;DHT22;33950;48.154;16.316;2022-09-29T16:19:29;17.80;85.00
48162;DHT22;33950;48.154;16.316;2022-09-29T16:22:21;17.80;85.00
48162;DHT22;33950;48.154;16.316;2022-09-29T16:25:17;17.80;85.40
48162;DHT22;33950;48.154;16.316;2022-09-29T16:28:25;17.70;85.20
48162;DHT22;33950;48.154;16.316;2022-09-29T16:31:18;17.70;85.40
48162;DHT22;33950;48.154;16.316;2022-09-29T16:34:25;17.70;84.80
48162;DHT22;33950;48.154;16.316;2022-09-29T16:37:14;17.60;84.80
48162;DHT22;33950;48.154;16.316;2022-09-29T16:40:04;17.50;85.10
48162;DHT22;33950;48.154;16.316;2022-09-29T16:42:52;17.50;85.00
48162;DHT22;33950;48.154;16.316;2022-09-29T16:45:39;17.50;86.00
48162;DHT22;33950;48.154;16.316;2022-09-29T16:48:28;17.50;85.40
48162;DHT22;33950;48.154;16.316;2022-09-29T16:51:16;17.50;85.50
48162;DHT22;33950;48.154;16.316;2022-09-29T16:54:03;17.40;85.40
48162;DHT22;33950;48.154;16.316;2022-09-29T16:57:23;17.40;85.70
48162;DHT22;33950;48.154;16.316;2022-09-29T17:00:12;17.40;85.20
48162;DHT22;33950;48.154;16.316;2022-09-29T17:02:58;17.30;85.60
48162;DHT22;33950;48.154;16.316;2022-09-29T17:05:48;17.20;85.70
48162;DHT22;33950;48.154;16.316;2022-09-29T17:08:34;17.30;85.70
48162;DHT22;33950;48.154;16.316;2022-09-29T17:11:20;17.20;85.70
48162;DHT22;33950;48.154;16.316;2022-09-29T17:14:09;17.10;85.70
48162;DHT22;33950;48.154;16.316;2022-09-29T17:17:02;17.00;86.10
48162;DHT22;33950;48.154;16.316;2022-09-29T17:19:51;16.90;85.70
48162;DHT22;33950;48.154;16.316;2022-09-29T17:22:37;16.80;85.80
48162;DHT22;33950;48.154;16.316;2022-09-29T17:25:24;16.80;86.20
48162;DHT22;33950;48.154;16.316;2022-09-29T17:28:15;16.80;86.20
48162;DHT22;33950;48.154;16.316;2022-09-29T17:31:03;16.80;86.50
48162;DHT22;33950;48.154;16.316;2022-09-29T17:33:49;16.80;86.60
48162;DHT22;33950;48.154;16.316;2022-09-29T17:36:36;16.80;86.60
48162;DHT22;33950;48.154;16.316;2022-09-29T17:39:23;16.70;86.70
48162;DHT22;33950;48.154;16.316;2022-09-29T17:42:09;16.70;86.40
48162;DHT22;33950;48.154;16.316;2022-09-29T17:44:55;16.70;86.90
48162;DHT22;33950;48.154;16.316;2022-09-29T17:47:44;16.70;87.00
48162;DHT22;33950;48.154;16.316;2022-09-29T17:50:33;16.70;87.00
48162;DHT22;33950;48.154;16.316;2022-09-29T17:53:21;16.70;86.90
48162;DHT22;33950;48.154;16.316;2022-09-29T17:56:18;16.70;86.80
48162;DHT22;33950;48.154;16.316;2022-09-29T17:59:09;16.60;87.10
48162;DHT22;33950;48.154;16.316;2022-09-29T18:01:57;16.50;87.10